Time;durP1;ratioP1;P1;durP2;ratioP2;P2;SDS_P1;SDS_P2;PMS_P1;PMS_P2;Temp;Humidity;BMP_temperature;BMP_pressure;BME280_temperature;BME280_humidity;BME280_pressure;Samples;Min_cycle;Max_cycle;Signal;HPM_P1;HPM_P2
2022/04/18 00:02:21;;;;;;;4.43;2.25;;;8.80;43.00;;;;;;5116978;27;20462;-74
2022/04/18 00:04:47;;;;;;;3.72;2.35;;;8.70;42.90;;;;;;5117310;27;20379;-74
2022/04/18 00:07:13;;;;;;;3.25;2.10;;;8.70;42.70;;;;;;5135865;27;20034;-74
2022/04/18 00:09:39;;;;;;;3.78;2.38;;;8.70;43.00;;;;;;5135190;27;20031;-75
2022/04/18 00:12:05;;;;;;;5.13;2.10;;;8.70;43.20;;;;;;5135473;27;20041;-74
2022/04/18 00:14:31;;;;;;;3.97;2.10;;;8.70;43.00;;;;;;5116885;27;20027;-74
2022/04/18 00:16:57;;;;;;;6.28;2.15;;;8.70;43.20;;;;;;5135122;27;20030;-74
2022/04/18 00:19:23;;;;;;;3.95;2.13;;;8.70;43.20;;;;;;5134975;27;20025;-74
2022/04/18 00:21:49;;;;;;;4.30;2.22;;;8.70;43.20;;;;;;5135323;27;20367;-75
2022/04/18 00:24:17;;;;;;;7.32;2.30;;;8.60;43.30;;;;;;5116900;27;20485;-74
2022/04/18 00:26:44;;;;;;;4.63;2.03;;;8.60;43.10;;;;;;5135201;27;20398;-74
2022/04/18 00:29:10;;;;;;;3.47;2.10;;;8.50;43.10;;;;;;5116770;27;20050;-74
2022/04/18 00:31:36;;;;;;;2.70;1.77;;;8.50;43.10;;;;;;5134862;27;20523;-75
2022/04/18 00:34:03;;;;;;;3.70;1.80;;;8.50;43.20;;;;;;5116663;27;20110;-74
2022/04/18 00:36:29;;;;;;;5.00;2.33;;;8.40;43.30;;;;;;5116692;27;20172;-74
2022/04/18 00:38:55;;;;;;;4.38;2.10;;;8.40;43.50;;;;;;5134908;27;20484;-75
2022/04/18 00:41:20;;;;;;;4.05;2.28;;;8.30;43.60;;;;;;5116181;27;20078;-75
2022/04/18 00:43:49;;;;;;;2.70;2.08;;;8.30;43.60;;;;;;5116497;27;20102;-74
2022/04/18 00:46:17;;;;;;;4.40;2.20;;;8.20;43.70;;;;;;5116109;27;20023;-74
2022/04/18 00:48:43;;;;;;;3.33;1.95;;;8.20;44.00;;;;;;5116457;27;20027;-75
2022/04/18 00:51:25;;;;;;;4.47;2.45;;;8.10;43.80;;;;;;5116423;27;20057;-74
2022/04/18 00:53:56;;;;;;;4.22;2.08;;;8.10;44.20;;;;;;5134170;27;20371;-74
2022/04/18 00:56:23;;;;;;;2.97;1.52;;;8.10;44.50;;;;;;5134248;27;20023;-75
2022/04/18 00:58:50;;;;;;;2.63;1.73;;;8.00;44.10;;;;;;5116301;27;20114;-74
2022/04/18 01:01:17;;;;;;;4.18;1.90;;;8.00;44.90;;;;;;5115865;27;20023;-74
2022/04/18 01:03:44;;;;;;;5.80;1.92;;;8.00;44.50;;;;;;5134173;27;20092;-75
2022/04/18 01:06:10;;;;;;;4.32;2.15;;;7.90;44.50;;;;;;5115775;27;20057;-74
2022/04/18 01:08:37;;;;;;;3.58;2.05;;;7.90;44.40;;;;;;5133446;27;20030;-74
2022/04/18 01:11:06;;;;;;;3.85;1.90;;;7.80;44.60;;;;;;5134270;27;20083;-75
2022/04/18 01:13:48;;;;;;;4.10;2.08;;;7.80;44.70;;;;;;5133904;27;20027;-74
2022/04/18 01:16:14;;;;;;;3.92;1.98;;;7.70;44.90;;;;;;5115878;27;20030;-75
2022/04/18 01:18:41;;;;;;;3.92;2.05;;;7.70;44.90;;;;;;5115846;27;20114;-74
2022/04/18 01:21:08;;;;;;;3.22;2.00;;;7.70;44.90;;;;;;5134137;27;20038;-73
2022/04/18 01:23:34;;;;;;;5.38;2.03;;;7.60;44.90;;;;;;5115806;28;20058;-74
2022/04/18 01:28:59;;;;;;;3.75;2.17;;;7.60;45.20;;;;;;5134269;28;20030;-74
2022/04/18 01:31:27;;;;;;;4.47;2.55;;;7.60;45.50;;;;;;5134241;28;20031;-74
2022/04/18 01:33:53;;;;;;;7.10;2.80;;;7.50;45.90;;;;;;5115673;28;20031;-74
2022/04/18 01:36:19;;;;;;;5.55;2.55;;;7.50;45.90;;;;;;5134150;28;20115;-74
2022/04/18 01:38:45;;;;;;;4.03;2.17;;;7.40;45.60;;;;;;5134272;28;20443;-74
2022/04/18 01:41:10;;;;;;;5.55;2.83;;;7.40;45.60;;;;;;5115191;28;20059;-74
2022/04/18 01:43:36;;;;;;;5.75;2.83;;;7.40;45.90;;;;;;5134114;28;20023;-74
2022/04/18 01:46:02;;;;;;;6.00;2.72;;;7.40;45.70;;;;;;5134149;28;20431;-74
2022/04/18 01:48:28;;;;;;;5.53;2.67;;;7.30;45.70;;;;;;5115358;28;20030;-74
2022/04/18 01:50:54;;;;;;;6.68;2.85;;;7.30;45.60;;;;;;5115579;28;20038;-74
2022/04/18 01:53:19;;;;;;;3.38;2.10;;;7.30;45.60;;;;;;5115249;28;20027;-75
2022/04/18 01:55:45;;;;;;;5.43;2.72;;;7.30;45.70;;;;;;5115518;28;20072;-75
2022/04/18 01:58:11;;;;;;;7.28;3.10;;;7.20;45.60;;;;;;5133644;28;20436;-75
2022/04/18 02:00:37;;;;;;;4.43;2.67;;;7.20;46.00;;;;;;5115142;28;20097;-74
2022/04/18 02:03:03;;;;;;;5.07;2.45;;;7.20;46.00;;;;;;5133950;28;20145;-74
2022/04/18 02:05:29;;;;;;;6.35;2.58;;;7.20;46.00;;;;;;5133889;28;20467;-74
2022/04/18 02:07:55;;;;;;;4.32;2.15;;;7.10;46.00;;;;;;5115415;28;20023;-74
2022/04/18 02:10:20;;;;;;;8.55;3.10;;;7.10;46.00;;;;;;5133508;28;20083;-74
2022/04/18 02:12:46;;;;;;;5.10;2.30;;;7.10;45.90;;;;;;5119701;28;20448;-74
2022/04/18 02:15:12;;;;;;;4.47;2.20;;;7.00;46.00;;;;;;5094868;28;20027;-75
2022/04/18 02:17:38;;;;;;;4.32;2.05;;;7.00;46.10;;;;;;5112964;28;20053;-75
2022/04/18 02:20:05;;;;;;;4.78;2.28;;;7.00;46.00;;;;;;5116019;28;20115;-74
2022/04/18 02:22:30;;;;;;;5.25;2.00;;;7.00;46.40;;;;;;5116759;28;20024;-74
2022/04/18 02:25:00;;;;;;;4.97;2.35;;;6.90;46.00;;;;;;5098826;28;20464;-74
2022/04/18 02:27:26;;;;;;;4.20;2.20;;;6.90;46.10;;;;;;5098562;28;20089;-74
2022/04/18 02:29:52;;;;;;;6.30;2.58;;;6.90;46.20;;;;;;5117141;28;20443;-74
2022/04/18 02:35:02;;;;;;;3.13;1.70;;;6.90;46.40;;;;;;5116874;28;20088;-75
2022/04/18 02:37:28;;;;;;;4.38;2.25;;;6.90;46.60;;;;;;5097993;28;20040;-74
2022/04/18 02:39:54;;;;;;;2.58;1.65;;;6.80;46.70;;;;;;5098041;28;20051;-74
2022/04/18 02:42:20;;;;;;;11.32;2.83;;;6.80;47.40;;;;;;5098427;28;20045;-74
2022/04/18 02:44:48;;;;;;;4.43;2.05;;;6.80;47.10;;;;;;5116252;28;20028;-74
2022/04/18 02:47:14;;;;;;;4.97;2.03;;;6.70;47.20;;;;;;5116747;28;20038;-74
2022/04/18 02:49:40;;;;;;;3.95;2.10;;;6.70;47.20;;;;;;5098002;28;20467;-74
2022/04/18 02:52:06;;;;;;;4.35;2.42;;;6.70;47.40;;;;;;5098127;28;20111;-74
2022/04/18 02:54:31;;;;;;;4.85;2.50;;;6.70;47.70;;;;;;5098045;28;20030;-74
2022/04/18 02:56:57;;;;;;;3.88;2.38;;;6.70;47.80;;;;;;5116073;28;20028;-75
2022/04/18 02:59:23;;;;;;;3.53;1.80;;;6.60;47.70;;;;;;5116156;28;20444;-74
2022/04/18 03:01:49;;;;;;;3.03;2.03;;;6.60;47.70;;;;;;5097874;28;20031;-75
2022/04/18 03:04:14;;;;;;;6.45;2.33;;;6.60;47.90;;;;;;5115927;28;20047;-74
2022/04/18 03:06:40;;;;;;;3.10;1.80;;;6.60;48.10;;;;;;5115850;28;20028;-74
2022/04/18 03:09:06;;;;;;;4.93;2.33;;;6.60;48.10;;;;;;5097699;28;20024;-74
2022/04/18 03:11:32;;;;;;;2.97;1.77;;;6.60;48.30;;;;;;5113001;27;20035;-74
2022/04/18 03:13:57;;;;;;;4.07;2.35;;;6.50;48.30;;;;;;5118128;27;20106;-74
2022/04/18 03:16:23;;;;;;;3.78;1.80;;;6.50;48.40;;;;;;5136218;27;20055;-74
2022/04/18 03:18:49;;;;;;;4.35;1.95;;;6.50;48.50;;;;;;5136186;27;20023;-75
2022/04/18 03:21:16;;;;;;;3.58;1.95;;;6.50;48.60;;;;;;5118045;27;20035;-74
2022/04/18 03:23:45;;;;;;;5.32;2.13;;;6.40;48.70;;;;;;5136372;27;20023;-74
2022/04/18 03:26:12;;;;;;;2.92;1.65;;;6.50;48.70;;;;;;5136344;27;20072;-74
2022/04/18 03:28:37;;;;;;;4.72;2.33;;;6.40;48.80;;;;;;5117796;27;20076;-74
2022/04/18 03:31:03;;;;;;;3.88;2.10;;;6.40;48.80;;;;;;5117309;27;20035;-74
2022/04/18 03:33:29;;;;;;;2.80;1.92;;;6.40;49.00;;;;;;5117378;27;20028;-74
2022/04/18 03:41:24;;;;;;;3.83;2.08;;;6.30;48.80;;;;;;5135480;27;20562;-74
2022/04/18 03:43:51;;;;;;;5.63;2.45;;;6.30;48.90;;;;;;5117569;27;20122;-75
2022/04/18 03:46:18;;;;;;;3.05;2.05;;;6.30;49.10;;;;;;5117529;27;20034;-74
2022/04/18 03:48:43;;;;;;;3.30;1.73;;;6.30;49.10;;;;;;5135885;27;20024;-74
2022/04/18 03:51:09;;;;;;;3.67;1.98;;;6.20;48.90;;;;;;5135496;27;20394;-74
2022/04/18 03:53:35;;;;;;;3.60;1.92;;;6.20;48.90;;;;;;5135782;27;20023;-74
2022/04/18 03:56:01;;;;;;;4.00;2.15;;;6.20;49.20;;;;;;5117257;27;20027;-75
2022/04/18 03:58:27;;;;;;;5.38;2.00;;;6.20;49.20;;;;;;5135687;27;20106;-74
2022/04/18 04:00:52;;;;;;;6.43;2.22;;;6.20;49.20;;;;;;5135879;27;20475;-74
2022/04/18 04:03:18;;;;;;;5.57;2.83;;;6.10;49.30;;;;;;5135873;27;20027;-74
2022/04/18 04:05:44;;;;;;;3.78;2.20;;;6.10;49.50;;;;;;5135285;27;20099;-74
2022/04/18 04:08:09;;;;;;;4.85;2.28;;;6.10;49.50;;;;;;5135416;27;20030;-74
2022/04/18 04:10:35;;;;;;;3.80;2.10;;;6.10;49.60;;;;;;5135031;27;20386;-74
2022/04/18 04:13:02;;;;;;;3.42;1.90;;;6.10;49.90;;;;;;5116933;27;20077;-75
2022/04/18 04:15:27;;;;;;;5.10;2.10;;;6.10;50.00;;;;;;5135330;27;20026;-74
2022/04/18 04:17:53;;;;;;;4.00;1.77;;;6.10;50.10;;;;;;5135579;27;20023;-74
2022/04/18 04:20:19;;;;;;;4.05;2.38;;;6.10;50.20;;;;;;5116813;27;20360;-74
2022/04/18 04:22:51;;;;;;;3.40;2.05;;;6.10;50.30;;;;;;5116879;27;20046;-74
2022/04/18 04:25:17;;;;;;;4.35;2.13;;;6.10;50.60;;;;;;5116868;27;20474;-74
2022/04/18 04:27:43;;;;;;;3.58;2.00;;;6.10;50.50;;;;;;5135183;27;20498;-74
2022/04/18 04:30:10;;;;;;;5.07;1.90;;;6.10;50.50;;;;;;5116635;27;20113;-74
2022/04/18 04:32:35;;;;;;;4.78;2.10;;;6.10;50.60;;;;;;5134736;27;20540;-74
2022/04/18 04:35:01;;;;;;;4.22;1.92;;;6.10;50.60;;;;;;5116246;27;20023;-74
2022/04/18 04:37:27;;;;;;;5.78;2.30;;;6.10;51.00;;;;;;5134883;27;20030;-74
2022/04/18 04:39:53;;;;;;;4.55;2.58;;;6.20;51.10;;;;;;5116352;27;20188;-74
2022/04/18 04:42:19;;;;;;;4.28;2.35;;;6.20;51.00;;;;;;5133966;27;20451;-74
2022/04/18 04:44:45;;;;;;;4.72;2.42;;;6.20;51.00;;;;;;5116370;27;20465;-74
2022/04/18 04:47:11;;;;;;;3.95;2.47;;;6.20;51.20;;;;;;5116308;27;20390;-74
2022/04/18 04:49:37;;;;;;;6.10;2.58;;;6.30;51.60;;;;;;5134399;27;20030;-74
2022/04/18 04:52:05;;;;;;;4.72;2.53;;;6.30;51.70;;;;;;5116196;27;20363;-74
2022/04/18 04:54:32;;;;;;;4.25;2.35;;;6.40;51.70;;;;;;5116099;27;20072;-74
2022/04/18 04:56:57;;;;;;;5.60;2.80;;;6.50;51.60;;;;;;5116212;27;20019;-74
2022/04/18 04:59:23;;;;;;;4.05;2.17;;;6.60;51.60;;;;;;5115834;27;20451;-74
2022/04/18 05:01:49;;;;;;;4.15;2.50;;;6.60;51.40;;;;;;5115886;27;20043;-74
2022/04/18 05:04:15;;;;;;;5.47;2.38;;;6.70;51.40;;;;;;5134559;27;20067;-74
2022/04/18 05:06:40;;;;;;;4.32;1.95;;;6.80;51.40;;;;;;5134534;27;20455;-74
2022/04/18 05:09:09;;;;;;;3.30;1.90;;;6.80;51.30;;;;;;5134362;27;20451;-74
2022/04/18 05:11:35;;;;;;;4.03;2.22;;;6.90;51.30;;;;;;5134696;27;20084;-74
2022/04/18 05:14:01;;;;;;;3.35;2.20;;;7.00;51.20;;;;;;5115962;27;20019;-74
2022/04/18 05:16:27;;;;;;;4.47;2.50;;;7.10;51.20;;;;;;5134045;27;20076;-75
2022/04/18 05:18:53;;;;;;;4.63;2.47;;;7.20;51.20;;;;;;5115948;28;20481;-74
2022/04/18 05:21:19;;;;;;;4.43;2.55;;;7.20;51.10;;;;;;5134572;27;20035;-74
2022/04/18 05:23:45;;;;;;;4.75;2.33;;;7.30;51.00;;;;;;5115838;28;20027;-74
2022/04/18 05:26:11;;;;;;;3.10;2.47;;;7.40;50.70;;;;;;5134524;28;20096;-74
2022/04/18 05:28:37;;;;;;;10.48;5.22;;;7.50;50.60;;;;;;5115792;28;20023;-74
2022/04/18 05:31:03;;;;;;;24.33;10.52;;;7.60;50.50;;;;;;5115812;28;20132;-75
2022/04/18 05:33:28;;;;;;;24.25;11.00;;;7.70;50.30;;;;;;5134102;28;20034;-74
2022/04/18 05:35:54;;;;;;;21.88;9.23;;;7.80;50.10;;;;;;5115833;28;20019;-74
2022/04/18 05:38:20;;;;;;;15.77;7.70;;;7.80;49.80;;;;;;5134206;28;20468;-74
2022/04/18 05:40:46;;;;;;;11.18;5.30;;;7.90;49.60;;;;;;5115395;28;20051;-74
2022/04/18 05:43:11;;;;;;;9.90;4.15;;;8.00;49.20;;;;;;5115695;28;20111;-74
2022/04/18 05:45:38;;;;;;;7.18;3.40;;;8.00;49.00;;;;;;5115571;28;20070;-74
2022/04/18 05:48:05;;;;;;;7.30;2.80;;;8.10;48.80;;;;;;5115626;28;20027;-75
2022/04/18 05:50:31;;;;;;;4.10;2.33;;;8.20;48.60;;;;;;5134081;28;20034;-74
2022/04/18 05:52:57;;;;;;;4.47;2.70;;;8.20;48.10;;;;;;5115543;27;20023;-74
2022/04/18 05:55:23;;;;;;;7.00;3.03;;;8.30;48.00;;;;;;5137614;27;20489;-74
2022/04/18 05:57:50;;;;;;;6.78;2.75;;;8.40;47.70;;;;;;5137768;27;20058;-75
2022/04/18 06:00:16;;;;;;;4.45;2.25;;;8.40;47.70;;;;;;5137963;27;20031;-74
2022/04/18 06:02:42;;;;;;;7.57;2.60;;;8.50;47.70;;;;;;5119655;27;20394;-74
2022/04/18 06:05:08;;;;;;;4.85;2.70;;;8.50;47.50;;;;;;5119572;27;20029;-74
2022/04/18 06:07:34;;;;;;;5.53;2.60;;;8.60;47.60;;;;;;5137579;27;20458;-74
2022/04/18 06:10:01;;;;;;;3.72;2.58;;;8.70;47.80;;;;;;5137964;27;20039;-74
2022/04/18 06:12:27;;;;;;;5.03;2.60;;;8.80;48.00;;;;;;5119398;27;20027;-74
2022/04/18 06:14:54;;;;;;;5.03;2.72;;;8.90;48.00;;;;;;5119374;27;20386;-74
2022/04/18 06:17:20;;;;;;;2.83;1.90;;;9.00;47.80;;;;;;5137799;27;20020;-74
2022/04/18 06:19:45;;;;;;;3.55;2.35;;;9.20;47.80;;;;;;5119206;27;20019;-74
2022/04/18 06:22:11;;;;;;;5.20;3.08;;;9.30;47.50;;;;;;5119331;27;20076;-74
2022/04/18 06:24:37;;;;;;;4.53;2.42;;;9.40;47.30;;;;;;5137667;27;20068;-74
2022/04/18 06:27:03;;;;;;;3.47;2.40;;;9.60;47.30;;;;;;5137366;27;20445;-75
2022/04/18 06:29:29;;;;;;;4.57;2.58;;;9.70;47.20;;;;;;5137582;27;20054;-74
2022/04/18 06:31:55;;;;;;;8.23;2.53;;;9.80;47.10;;;;;;5132700;27;20051;-74
2022/04/18 06:34:21;;;;;;;3.35;2.35;;;10.00;46.90;;;;;;5118895;27;20388;-74
2022/04/18 06:36:47;;;;;;;4.50;2.53;;;10.10;46.70;;;;;;5118572;27;20172;-74
2022/04/18 06:39:12;;;;;;;4.80;2.85;;;10.20;46.40;;;;;;5118683;27;20478;-74
2022/04/18 06:41:38;;;;;;;5.95;3.13;;;10.40;46.10;;;;;;5135946;27;20082;-74
2022/04/18 06:44:04;;;;;;;4.80;2.35;;;10.60;45.80;;;;;;5125152;27;20045;-75
2022/04/18 06:46:30;;;;;;;5.50;2.60;;;10.70;45.50;;;;;;5098427;28;20082;-74
2022/04/18 06:48:56;;;;;;;3.78;2.47;;;10.80;45.20;;;;;;5109943;27;20054;-74
2022/04/18 06:51:22;;;;;;;4.25;2.58;;;11.00;45.30;;;;;;5136788;27;20031;-74
2022/04/18 06:53:47;;;;;;;7.65;3.08;;;11.10;45.00;;;;;;5118790;27;20060;-74
2022/04/18 06:58:58;;;;;;;4.10;2.50;;;11.40;44.10;;;;;;5136860;27;20568;-74
2022/04/18 07:01:24;;;;;;;6.45;3.00;;;11.60;43.90;;;;;;5136607;27;20056;-74
2022/04/18 07:03:50;;;;;;;5.97;3.55;;;11.60;43.60;;;;;;5118223;27;20023;-74
2022/04/18 07:06:15;;;;;;;8.90;4.15;;;11.70;43.30;;;;;;5117099;27;20469;-75
2022/04/18 07:08:41;;;;;;;15.10;5.95;;;11.70;43.30;;;;;;5114541;27;20046;-74
2022/04/18 07:11:07;;;;;;;8.30;4.50;;;11.80;43.40;;;;;;5117415;27;20027;-74
2022/04/18 07:13:33;;;;;;;9.23;4.72;;;11.80;43.30;;;;;;5118066;27;20071;-74
2022/04/18 07:16:00;;;;;;;8.90;4.15;;;11.90;43.10;;;;;;5117766;27;20027;-74
2022/04/18 07:18:26;;;;;;;9.98;4.55;;;12.00;43.00;;;;;;5118088;27;20026;-74
2022/04/18 07:20:52;;;;;;;8.80;4.80;;;12.10;42.90;;;;;;5136477;27;20031;-75
2022/04/18 07:23:17;;;;;;;10.30;5.13;;;12.30;43.10;;;;;;5118106;27;20047;-75
2022/04/18 07:25:43;;;;;;;8.20;4.00;;;12.40;42.80;;;;;;5136449;27;20020;-74
2022/04/18 07:28:09;;;;;;;5.82;3.40;;;12.60;42.60;;;;;;5117946;27;20470;-74
2022/04/18 07:30:35;;;;;;;9.40;4.72;;;12.70;42.60;;;;;;5117907;27;20118;-74
2022/04/18 07:33:00;;;;;;;8.40;3.85;;;12.90;42.30;;;;;;5117823;27;20023;-74
2022/04/18 07:35:26;;;;;;;8.82;4.15;;;13.10;42.20;;;;;;5117858;27;20369;-75
2022/04/18 07:40:36;;;;;;;8.13;4.15;;;13.50;41.10;;;;;;5135890;27;20119;-74
2022/04/18 07:43:02;;;;;;;6.35;3.72;;;13.70;40.90;;;;;;5117605;27;20032;-74
2022/04/18 07:45:28;;;;;;;6.53;3.17;;;13.80;40.20;;;;;;5136085;27;20102;-74
2022/04/18 07:47:54;;;;;;;7.25;3.70;;;13.90;40.10;;;;;;5117582;27;20451;-74
2022/04/18 07:51:31;;;;;;;4.80;2.95;;;14.00;39.50;;;;;;5117412;27;20023;-74
2022/04/18 07:53:05;;;;;;;4.20;2.65;;;14.20;39.30;;;;;;5135344;27;20030;-74
2022/04/18 07:55:31;;;;;;;6.70;3.10;;;14.30;39.10;;;;;;5117396;27;20023;-75
2022/04/18 07:57:57;;;;;;;4.03;2.22;;;14.40;38.50;;;;;;5135511;27;20026;-74
2022/04/18 08:00:23;;;;;;;5.47;2.65;;;14.50;38.30;;;;;;5135474;27;20080;-74
2022/04/18 08:02:49;;;;;;;4.13;2.58;;;14.60;38.00;;;;;;5117188;27;20079;-74
2022/04/18 08:05:14;;;;;;;3.97;2.78;;;14.70;37.60;;;;;;5135601;27;20098;-75
2022/04/18 08:07:40;;;;;;;3.83;2.58;;;14.80;37.00;;;;;;5135357;27;20019;-74
2022/04/18 08:10:06;;;;;;;5.20;2.60;;;14.90;36.70;;;;;;5135524;27;20140;-74
2022/04/18 08:12:34;;;;;;;5.18;2.50;;;15.00;36.70;;;;;;5135520;27;20057;-74
2022/04/18 08:14:59;;;;;;;4.70;2.88;;;15.10;36.00;;;;;;5135803;27;20036;-74
2022/04/18 08:17:25;;;;;;;4.38;2.90;;;15.10;35.80;;;;;;5134924;27;20406;-75
2022/04/18 08:19:51;;;;;;;4.63;2.42;;;15.20;35.40;;;;;;5116480;27;20462;-75
2022/04/18 08:22:17;;;;;;;3.47;2.60;;;15.30;35.40;;;;;;5134765;27;20023;-75
2022/04/18 08:24:43;;;;;;;6.43;3.10;;;15.40;35.60;;;;;;5116511;27;20118;-75
2022/04/18 08:27:09;;;;;;;3.42;2.22;;;15.50;35.10;;;;;;5116498;27;20031;-75
2022/04/18 08:29:34;;;;;;;4.30;2.50;;;15.60;35.00;;;;;;5116804;27;20547;-74
2022/04/18 08:32:02;;;;;;;4.93;2.67;;;15.60;34.40;;;;;;5117106;27;20054;-74
2022/04/18 08:34:28;;;;;;;6.00;2.90;;;15.70;34.00;;;;;;5116890;27;20046;-75
2022/04/18 08:36:54;;;;;;;8.73;3.13;;;15.80;33.30;;;;;;5116653;27;20459;-75
2022/04/18 08:39:19;;;;;;;6.18;3.42;;;15.80;33.80;;;;;;5115423;27;20027;-74
2022/04/18 08:41:51;;;;;;;4.43;3.10;;;15.80;33.40;;;;;;5114363;28;20036;-74
2022/04/18 08:44:19;;;;;;;5.60;3.30;;;15.80;33.50;;;;;;5114433;28;20020;-74
2022/04/18 08:46:46;;;;;;;7.75;3.67;;;15.90;33.60;;;;;;5096032;28;20169;-75
2022/04/18 08:54:44;;;;;;;7.10;3.40;;;16.00;34.50;;;;;;5114339;28;20080;-74
2022/04/18 08:57:10;;;;;;;7.63;3.40;;;16.10;34.10;;;;;;5113837;28;20023;-75
2022/04/18 08:59:36;;;;;;;8.05;3.58;;;16.20;34.00;;;;;;5095341;28;20035;-74
2022/04/18 09:02:02;;;;;;;6.25;3.20;;;16.30;33.80;;;;;;5095653;28;20478;-75
2022/04/18 09:04:29;;;;;;;5.65;2.92;;;16.40;33.80;;;;;;5114085;28;20020;-75
2022/04/18 09:06:54;;;;;;;6.93;3.05;;;16.50;33.40;;;;;;5111965;28;20532;-75
2022/04/18 09:09:28;;;;;;;5.03;3.03;;;16.60;33.50;;;;;;5101665;28;20055;-74
2022/04/18 09:11:54;;;;;;;5.80;3.03;;;16.60;33.30;;;;;;5113529;28;20382;-75
2022/04/18 09:14:20;;;;;;;4.25;2.67;;;16.60;33.30;;;;;;5095243;28;20028;-74
2022/04/18 09:16:46;;;;;;;5.05;2.72;;;16.60;33.30;;;;;;5095265;28;20030;-74
2022/04/18 09:19:16;;;;;;;4.50;2.80;;;16.70;34.20;;;;;;5095335;28;20024;-74
2022/04/18 09:22:02;;;;;;;6.22;2.97;;;16.80;33.50;;;;;;5113439;28;20092;-75
2022/04/18 09:24:34;;;;;;;4.93;2.90;;;16.80;33.60;;;;;;5113962;28;20026;-75
2022/04/18 09:27:27;;;;;;;4.55;2.50;;;17.00;33.40;;;;;;5095512;28;20023;-74
2022/04/18 09:30:11;;;;;;;8.30;3.13;;;17.20;33.60;;;;;;5088571;28;20394;-76
2022/04/18 09:32:40;;;;;;;6.68;3.20;;;17.30;32.60;;;;;;5120089;28;20127;-74
2022/04/18 09:35:07;;;;;;;4.47;2.92;;;17.50;32.40;;;;;;5102199;28;20604;-74
2022/04/18 09:37:33;;;;;;;5.32;3.45;;;17.60;32.30;;;;;;5120306;28;20068;-74
2022/04/18 09:39:59;;;;;;;6.35;3.15;;;17.70;32.00;;;;;;5101876;28;20052;-74
2022/04/18 09:42:29;;;;;;;10.80;3.28;;;17.90;31.70;;;;;;5117690;27;20359;-75
2022/04/18 09:44:55;;;;;;;5.03;2.80;;;18.00;31.40;;;;;;5122556;27;20019;-75
2022/04/18 09:47:23;;;;;;;6.68;3.90;;;18.10;30.80;;;;;;5122526;27;20072;-75
2022/04/18 09:49:49;;;;;;;6.72;3.35;;;18.20;30.60;;;;;;5122133;27;20192;-74
2022/04/18 09:52:20;;;;;;;6.65;3.22;;;18.20;30.00;;;;;;5122273;27;20381;-75
2022/04/18 09:54:50;;;;;;;4.40;2.78;;;18.20;29.60;;;;;;5122413;27;20023;-75
2022/04/18 09:57:20;;;;;;;4.82;2.60;;;18.10;29.80;;;;;;5122496;27;20027;-73
2022/04/18 09:59:50;;;;;;;5.20;2.88;;;18.10;29.70;;;;;;5141238;27;20489;-74
2022/04/18 10:02:16;;;;;;;5.15;2.78;;;18.00;29.00;;;;;;5140783;27;20015;-75
2022/04/18 10:04:44;;;;;;;6.07;3.08;;;17.90;29.00;;;;;;5122457;27;20030;-75
2022/04/18 10:07:10;;;;;;;4.57;2.85;;;17.90;29.20;;;;;;5122471;27;20027;-74
2022/04/18 10:09:40;;;;;;;3.67;2.50;;;17.80;28.80;;;;;;5122421;27;20323;-75
2022/04/18 10:12:11;;;;;;;4.20;2.75;;;17.80;29.10;;;;;;5122469;27;20023;-75
2022/04/18 10:14:39;;;;;;;6.22;2.50;;;17.90;29.00;;;;;;5122204;27;20023;-75
2022/04/18 10:17:10;;;;;;;5.85;2.63;;;17.90;28.90;;;;;;5122244;27;20023;-75
2022/04/18 10:20:07;;;;;;;4.90;2.60;;;17.90;28.70;;;;;;5140960;27;20049;-74
2022/04/18 10:23:05;;;;;;;4.93;2.78;;;17.90;28.90;;;;;;5140714;27;20098;-74
2022/04/18 10:25:49;;;;;;;5.25;2.80;;;17.90;28.90;;;;;;5122280;27;20023;-74
2022/04/18 10:28:32;;;;;;;4.32;3.05;;;17.80;29.00;;;;;;5122253;27;20023;-75
2022/04/18 10:31:07;;;;;;;5.18;2.85;;;17.80;29.20;;;;;;5122217;27;20386;-74
2022/04/18 10:33:33;;;;;;;6.70;2.72;;;17.70;29.00;;;;;;5121983;27;20031;-74
2022/04/18 10:36:05;;;;;;;4.97;2.45;;;17.60;28.50;;;;;;5122055;27;20080;-74
2022/04/18 10:38:33;;;;;;;7.45;2.97;;;17.60;28.70;;;;;;5122039;27;20154;-74
2022/04/18 10:41:18;;;;;;;5.07;2.50;;;17.60;28.60;;;;;;5137864;27;20043;-74
2022/04/18 10:44:02;;;;;;;3.63;2.10;;;17.50;28.30;;;;;;5137366;27;20027;-74
2022/04/18 10:46:29;;;;;;;4.00;2.22;;;17.40;28.30;;;;;;5118769;27;20537;-76
2022/04/18 10:49:00;;;;;;;3.85;2.03;;;17.30;28.30;;;;;;5118568;27;20063;-74
2022/04/18 10:51:37;;;;;;;3.22;2.05;;;17.30;28.40;;;;;;5118680;27;20027;-75
2022/04/18 10:54:13;;;;;;;5.53;2.40;;;17.20;28.60;;;;;;5118763;27;20027;-74
2022/04/18 10:56:47;;;;;;;3.50;2.20;;;17.20;28.90;;;;;;5136775;27;20079;-75
2022/04/18 10:59:18;;;;;;;3.35;2.33;;;17.20;28.60;;;;;;5118430;27;20023;-76
2022/04/18 11:01:43;;;;;;;4.25;2.38;;;17.20;28.90;;;;;;5118450;27;20476;-75
2022/04/18 11:04:12;;;;;;;3.47;2.53;;;17.20;29.20;;;;;;5137236;27;20047;-74
2022/04/18 11:06:39;;;;;;;3.42;2.40;;;17.20;29.10;;;;;;5118491;27;20077;-75
2022/04/18 11:09:19;;;;;;;3.40;2.22;;;17.20;28.90;;;;;;5118338;27;20027;-74
2022/04/18 11:11:53;;;;;;;2.92;1.90;;;17.30;29.10;;;;;;5118134;27;20037;-73
2022/04/18 11:14:25;;;;;;;;;;;17.30;29.30;;;;;;5118627;27;20031;-74
2022/04/18 11:17:00;;;;;;;4.68;2.53;;;17.40;30.00;;;;;;5118368;27;19910;-74
2022/04/18 11:19:29;;;;;;;5.70;2.60;;;17.50;29.70;;;;;;5117701;27;20031;-74
2022/04/18 11:21:55;;;;;;;3.75;1.98;;;17.60;29.30;;;;;;5118405;27;20393;-74
2022/04/18 11:24:51;;;;;;;3.05;2.22;;;17.60;29.40;;;;;;5136442;27;20019;-74
2022/04/18 11:27:20;;;;;;;4.00;2.10;;;17.60;29.30;;;;;;5118111;27;20462;-74
2022/04/18 11:30:00;;;;;;;3.50;1.75;;;17.60;29.30;;;;;;5117875;27;20054;-74
2022/04/18 11:32:37;;;;;;;3.58;1.98;;;17.60;29.40;;;;;;5117685;27;20034;-74
2022/04/18 11:35:06;;;;;;;4.43;2.08;;;17.60;29.00;;;;;;5117753;27;20023;-74
2022/04/18 11:37:40;;;;;;;5.32;1.83;;;17.50;29.00;;;;;;5117640;27;20031;-74
2022/04/18 11:40:08;;;;;;;3.47;1.90;;;17.50;29.20;;;;;;5117317;27;20494;-75
2022/04/18 11:42:37;;;;;;;2.20;1.45;;;17.50;29.40;;;;;;5135797;27;20023;-74
2022/04/18 11:45:06;;;;;;;3.30;1.45;;;17.50;29.50;;;;;;5117342;27;20470;-74
2022/04/18 11:47:44;;;;;;;4.50;2.20;;;17.60;29.50;;;;;;5135865;27;20023;-74
2022/04/18 11:50:11;;;;;;;4.13;1.70;;;17.60;29.30;;;;;;5117337;27;20466;-74
2022/04/18 11:52:41;;;;;;;1.85;1.40;;;17.70;29.30;;;;;;5116975;27;20118;-73
2022/04/18 11:55:17;;;;;;;4.13;1.95;;;17.90;29.20;;;;;;5117682;27;20360;-74
2022/04/18 11:57:45;;;;;;;3.92;1.75;;;18.00;28.80;;;;;;5117083;27;20474;-74
2022/04/18 12:00:16;;;;;;;3.00;1.65;;;18.20;28.90;;;;;;5135709;27;20046;-72
2022/04/18 12:08:18;;;;;;;2.90;1.80;;;18.50;28.30;;;;;;5135706;27;20064;-75
2022/04/18 12:10:45;;;;;;;3.17;1.80;;;18.50;28.20;;;;;;5117184;27;20032;-74
2022/04/18 12:13:13;;;;;;;6.63;1.73;;;18.60;28.10;;;;;;5117092;27;20027;-73
2022/04/18 12:15:40;;;;;;;3.10;1.60;;;18.70;27.90;;;;;;5135233;27;20102;-75
2022/04/18 12:18:18;;;;;;;6.82;2.35;;;18.80;28.20;;;;;;5116997;27;20027;-74
2022/04/18 12:20:46;;;;;;;2.03;1.55;;;19.00;28.20;;;;;;5116984;27;20038;-74
2022/04/18 12:23:17;;;;;;;3.58;1.95;;;19.20;27.90;;;;;;5135651;27;20509;-74
2022/04/18 12:25:48;;;;;;;3.20;1.60;;;19.40;28.20;;;;;;5117091;27;20031;-75
2022/04/18 12:28:15;;;;;;;2.85;2.35;;;19.70;27.90;;;;;;5116859;27;20023;-74
2022/04/18 12:30:42;;;;;;;2.67;1.60;;;20.00;27.60;;;;;;5116624;27;20458;-74
2022/04/18 12:33:12;;;;;;;3.38;1.52;;;20.30;27.40;;;;;;5116655;27;20031;-74
2022/04/18 12:35:43;;;;;;;3.17;1.77;;;20.60;26.90;;;;;;5116570;27;20050;-74
2022/04/18 12:38:11;;;;;;;2.97;1.70;;;20.80;26.10;;;;;;5116561;27;20027;-75
2022/04/18 12:40:44;;;;;;;3.60;1.60;;;20.90;25.00;;;;;;5134578;27;20051;-74
2022/04/18 12:43:13;;;;;;;2.72;1.85;;;20.90;25.10;;;;;;5116605;27;20027;-74
2022/04/18 12:45:48;;;;;;;3.17;2.10;;;20.90;24.80;;;;;;5134902;27;20028;-74
2022/04/18 12:48:20;;;;;;;3.92;2.00;;;20.90;25.00;;;;;;5116545;27;20034;-74
2022/04/18 12:50:46;;;;;;;4.10;1.75;;;20.90;25.10;;;;;;5116490;27;20450;-73
2022/04/18 12:53:11;;;;;;;2.53;1.65;;;20.80;25.00;;;;;;5134388;27;20027;-74
2022/04/18 12:55:37;;;;;;;2.67;1.67;;;20.70;25.30;;;;;;5116351;27;20027;-74
2022/04/18 12:58:14;;;;;;;2.95;1.67;;;20.70;25.50;;;;;;5116153;27;20478;-74
2022/04/18 13:00:40;;;;;;;3.70;1.70;;;20.60;25.50;;;;;;5116135;27;20104;-74
2022/04/18 13:03:07;;;;;;;2.95;1.77;;;20.70;25.70;;;;;;5115032;27;20023;-74
2022/04/18 13:05:41;;;;;;;2.67;1.90;;;20.60;25.40;;;;;;5116166;27;20023;-74
2022/04/18 13:08:08;;;;;;;1.70;1.30;;;20.60;25.40;;;;;;5116328;27;20088;-73
2022/04/18 13:10:36;;;;;;;3.20;1.77;;;20.60;25.40;;;;;;5134582;27;20113;-74
2022/04/18 13:13:20;;;;;;;7.45;1.95;;;20.60;25.70;;;;;;5116105;27;20171;-74
2022/04/18 13:15:47;;;;;;;2.95;1.70;;;20.50;25.50;;;;;;5116004;27;20035;-74
2022/04/18 13:18:19;;;;;;;4.90;2.33;;;20.50;25.70;;;;;;5134809;27;20031;-74
2022/04/18 13:20:45;;;;;;;3.28;1.60;;;20.50;25.50;;;;;;5134048;27;20067;-75
2022/04/18 13:23:11;;;;;;;3.22;1.92;;;20.50;25.60;;;;;;5116039;28;20030;-74
2022/04/18 13:25:39;;;;;;;4.35;2.00;;;20.40;25.70;;;;;;5116163;28;20072;-74